Strona główna
METAR-TAF:

METAR-TAF

Lotnisko :

Port lotniczy Marka

Amman, Jordania

Szerokość geograficzna: 31-59N, Długość geograficzna: 035-59E, wysokość: 767 m

Aktualna obserwacja pogody

Raport powstał 22 minut temu, godzina 23:00 UTC
Wiatr 4 kt od północny zachód
Temperatura 21°C
Wilgotność 46%
Ciśnienie 1014 hPa
Widzialność: 6000 m

METAR: OJAM 232300Z 32004KT 6000 NSC 21/09 Q1014 NOSIG

czas: 02:22 (23:22 UTC)

Prognoza

Raport powstał 6 godziny i 6 minut temu, godzina 17:16 UTC
Prognoza ważna od 23 godzina 18 UTC do 24 godzina 24 UTC
Wiatr 14 kt od zachodnio-północny zachód
Widzialność: 8000 m
Przejściowo
od 23 godzina 20 UTC do 24 godzina 10 UTC
Wiatr 8 kt od zachód

TAF: OJAM 231716Z 2318/2424 29014KT 8000 NSC TEMPO 2320/2410 27008KT

Obserwacja i prognoza pogody dla ponad 4000 lotnisk (raport METAR i TAF).

Dostępne stacje oznaczono żółtymi i czerwonymi punktami na mapie.

Najedź kursorem aby zobaczyć nazwę stacji.

Kliknij aby zobaczyć obserwacje i prognozy pogody.

Aby zmienić mapę: kliknij na zielony przycisk z czarnym krzyżykiem, aby powiększyć; na zielony przycisk z myślnikiem, aby pomniejszyć; na zielone strzałki, aby przejść do map sąsiednich.


METAR-TAF: